Time;durP1;ratioP1;P1;durP2;ratioP2;P2;SDS_P1;SDS_P2;PMS_P1;PMS_P2;Temp;Humidity;BMP_temperature;BMP_pressure;BME280_temperature;BME280_humidity;BME280_pressure;Samples;Min_cycle;Max_cycle;Signal;HPM_P1;HPM_P2
2023/12/07 00:01:54;;;;;;;28.80;13.33;;;;;3.20;96383.00;;;;8268017;28;20624;-73
2023/12/07 00:05:58;;;;;;;30.77;13.83;;;;;3.10;96384.00;;;;8268567;28;20267;-74
2023/12/07 00:10:03;;;;;;;29.97;13.70;;;;;3.10;96390.00;;;;8267173;28;20258;-74
2023/12/07 00:14:07;;;;;;;32.97;13.57;;;;;3.10;96394.00;;;;8267545;28;20202;-75
2023/12/07 00:18:11;;;;;;;28.23;13.70;;;;;3.00;96394.00;;;;8266807;28;20229;-75
2023/12/07 00:22:14;;;;;;;26.73;13.10;;;;;3.00;96397.00;;;;8266883;28;20198;-74
2023/12/07 00:26:19;;;;;;;26.63;13.60;;;;;3.00;96398.00;;;;8266888;28;20200;-74
2023/12/07 00:30:22;;;;;;;30.90;14.20;;;;;3.00;96403.00;;;;8268144;28;20667;-75
2023/12/07 00:34:25;;;;;;;29.73;14.33;;;;;3.00;96404.00;;;;8266305;28;20233;-75
2023/12/07 00:38:28;;;;;;;46.33;28.27;;;;;3.10;96405.00;;;;8266726;28;20230;-75
2023/12/07 00:42:32;;;;;;;29.83;14.63;;;;;3.10;96409.00;;;;8266956;28;20206;-75
2023/12/07 00:46:35;;;;;;;32.07;15.17;;;;;3.10;96409.00;;;;8266754;28;20252;-75
2023/12/07 00:50:39;;;;;;;31.63;14.13;;;;;3.10;96418.00;;;;8266769;28;20256;-75
2023/12/07 00:54:42;;;;;;;33.67;14.53;;;;;3.10;96422.00;;;;8266975;28;20202;-76
2023/12/07 00:58:46;;;;;;;31.87;14.00;;;;;3.00;96408.00;;;;8266561;28;20232;-76
2023/12/07 01:02:49;;;;;;;36.40;15.33;;;;;3.00;96411.00;;;;8267348;28;20713;-75
2023/12/07 01:06:56;;;;;;;35.23;14.93;;;;;3.00;96407.00;;;;8267352;28;20580;-74
2023/12/07 01:10:59;;;;;;;34.00;14.87;;;;;3.00;96414.00;;;;8266275;28;20234;-74
2023/12/07 01:15:04;;;;;;;34.03;14.63;;;;;3.00;96417.00;;;;8266135;28;20205;-75
2023/12/07 01:19:08;;;;;;;31.07;14.90;;;;;2.90;96414.00;;;;8265052;28;20209;-74
2023/12/07 01:23:11;;;;;;;36.40;15.97;;;;;2.90;96419.00;;;;8265983;28;20195;-74
2023/12/07 01:27:18;;;;;;;35.47;15.70;;;;;2.90;96428.00;;;;8266295;28;20183;-74
2023/12/07 01:31:22;;;;;;;32.97;14.90;;;;;2.90;96436.00;;;;8265512;28;20231;-74
2023/12/07 01:35:26;;;;;;;31.63;14.40;;;;;2.90;96438.00;;;;8271623;28;20237;-75
2023/12/07 01:39:29;;;;;;;30.87;14.27;;;;;2.90;96439.00;;;;8272436;28;20239;-74
2023/12/07 01:43:32;;;;;;;34.33;15.50;;;;;2.90;96440.00;;;;8272155;28;20622;-75
2023/12/07 01:47:38;;;;;;;33.17;16.30;;;;;2.90;96440.00;;;;8271699;28;20296;-74
2023/12/07 01:51:41;;;;;;;34.70;15.03;;;;;2.90;96448.00;;;;8271989;28;20379;-75
2023/12/07 01:55:45;;;;;;;35.73;16.67;;;;;2.90;96456.00;;;;8272516;28;20194;-75
2023/12/07 01:59:49;;;;;;;29.47;14.57;;;;;2.90;96453.00;;;;8271274;28;20237;-76
2023/12/07 02:03:54;;;;;;;36.83;16.60;;;;;2.90;96462.00;;;;8271651;28;20267;-76
2023/12/07 02:07:58;;;;;;;35.53;16.17;;;;;2.90;96466.00;;;;8271719;28;20351;-75
2023/12/07 02:12:01;;;;;;;31.97;15.73;;;;;2.90;96470.00;;;;8272387;28;20237;-76
2023/12/07 02:16:09;;;;;;;36.20;15.77;;;;;2.90;96470.00;;;;8271617;28;20195;-75
2023/12/07 02:20:25;;;;;;;33.97;14.90;;;;;2.90;96476.00;;;;8270254;28;20181;-75
2023/12/07 02:24:29;;;;;;;34.60;14.40;;;;;2.90;96468.00;;;;8271147;28;20278;-75
2023/12/07 02:28:33;;;;;;;37.63;16.00;;;;;2.90;96471.00;;;;8270361;28;20237;-75
2023/12/07 02:32:37;;;;;;;34.10;15.13;;;;;3.00;96476.00;;;;8270934;28;20222;-75
2023/12/07 02:36:42;;;;;;;30.57;14.70;;;;;2.90;96478.00;;;;8270867;28;20284;-75
2023/12/07 02:40:46;;;;;;;31.43;14.63;;;;;2.90;96477.00;;;;8271534;28;20630;-75
2023/12/07 02:44:53;;;;;;;32.23;14.83;;;;;2.90;96471.00;;;;8269701;28;20203;-75
2023/12/07 02:49:03;;;;;;;34.40;15.37;;;;;2.90;96484.00;;;;8269769;28;20209;-75
2023/12/07 02:53:06;;;;;;;30.63;14.20;;;;;2.90;96485.00;;;;8271381;28;20234;-74
2023/12/07 02:57:09;;;;;;;30.83;13.70;;;;;2.90;96483.00;;;;8269650;28;20195;-75
2023/12/07 03:05:20;;;;;;;30.90;14.20;;;;;2.90;96492.00;;;;8296402;28;20221;-74
2023/12/07 03:09:23;;;;;;;30.87;14.97;;;;;2.90;96483.00;;;;8308792;28;20219;-72
2023/12/07 03:13:26;;;;;;;32.63;14.30;;;;;2.80;96486.00;;;;8309254;28;20718;-72
2023/12/07 03:17:29;;;;;;;40.43;15.27;;;;;2.80;96477.00;;;;8299215;28;20273;-72
2023/12/07 03:21:34;;;;;;;36.70;14.87;;;;;2.90;96486.00;;;;8302977;28;20251;-71
2023/12/07 03:25:37;;;;;;;38.07;15.57;;;;;2.90;96488.00;;;;8305636;28;20287;-71
2023/12/07 03:29:40;;;;;;;34.07;15.73;;;;;2.80;96496.00;;;;8304597;28;20831;-71
2023/12/07 03:33:43;;;;;;;36.03;14.93;;;;;2.80;96499.00;;;;8299985;28;20951;-73
2023/12/07 03:37:48;;;;;;;35.17;15.23;;;;;2.80;96506.00;;;;8307208;28;20201;-73
2023/12/07 03:41:51;;;;;;;34.70;15.03;;;;;2.80;96512.00;;;;8309609;28;20205;-73
2023/12/07 03:45:54;;;;;;;32.40;14.70;;;;;2.80;96517.00;;;;8309801;28;20201;-73
2023/12/07 03:49:59;;;;;;;35.57;15.10;;;;;2.70;96518.00;;;;8311623;28;20290;-73
2023/12/07 03:54:05;;;;;;;32.73;14.90;;;;;2.70;96520.00;;;;8310693;28;20295;-74
2023/12/07 03:58:08;;;;;;;34.40;14.67;;;;;2.70;96516.00;;;;8311680;28;20222;-74
2023/12/07 04:02:12;;;;;;;31.73;14.63;;;;;2.70;96520.00;;;;8306013;28;20224;-76
2023/12/07 04:06:15;;;;;;;42.13;16.70;;;;;2.60;96531.00;;;;8301759;28;20208;-71
2023/12/07 04:10:20;;;;;;;41.80;15.97;;;;;2.60;96529.00;;;;8311957;28;20330;-74
2023/12/07 04:14:23;;;;;;;43.40;15.60;;;;;2.60;96537.00;;;;8306759;28;20311;-73
2023/12/07 04:18:28;;;;;;;38.60;15.87;;;;;2.60;96535.00;;;;8302423;28;20728;-74
2023/12/07 04:22:34;;;;;;;42.57;15.90;;;;;2.60;96543.00;;;;8306831;28;20197;-74
2023/12/07 04:26:38;;;;;;;39.57;15.57;;;;;2.60;96543.00;;;;8308120;28;20244;-74
2023/12/07 04:30:41;;;;;;;43.10;17.10;;;;;2.70;96543.00;;;;8310464;28;20237;-74
2023/12/07 04:34:44;;;;;;;40.83;15.30;;;;;2.70;96541.00;;;;8305239;28;20197;-74
2023/12/07 04:38:49;;;;;;;42.13;17.30;;;;;2.80;96536.00;;;;8310741;28;20776;-74
2023/12/07 04:42:53;;;;;;;43.73;16.77;;;;;2.80;96543.00;;;;8308952;28;20876;-73
2023/12/07 04:46:56;;;;;;;38.67;16.40;;;;;2.80;96547.00;;;;8305231;28;20214;-74
2023/12/07 04:51:00;;;;;;;51.00;17.57;;;;;2.80;96547.00;;;;8292409;28;20229;-76
2023/12/07 04:55:03;;;;;;;47.77;17.23;;;;;2.90;96550.00;;;;8303705;28;20204;-76
2023/12/07 04:59:08;;;;;;;41.30;15.90;;;;;2.90;96547.00;;;;8304419;28;20866;-76
2023/12/07 05:03:13;;;;;;;37.63;16.50;;;;;2.90;96553.00;;;;8304009;28;20316;-75
2023/12/07 05:07:16;;;;;;;37.30;16.27;;;;;3.00;96566.00;;;;8303007;28;20205;-77
2023/12/07 05:11:20;;;;;;;39.57;16.20;;;;;3.00;96560.00;;;;8303167;28;20316;-76
2023/12/07 05:15:24;;;;;;;39.90;15.73;;;;;3.00;96561.00;;;;8305878;28;20205;-75
2023/12/07 05:19:27;;;;;;;39.37;16.13;;;;;3.00;96567.00;;;;8305626;28;20205;-76
2023/12/07 05:23:31;;;;;;;42.37;16.20;;;;;3.10;96567.00;;;;8311842;28;20597;-76
2023/12/07 05:27:34;;;;;;;35.50;15.87;;;;;3.10;96564.00;;;;8308414;28;20322;-75
2023/12/07 05:31:39;;;;;;;33.30;15.07;;;;;3.10;96574.00;;;;8305156;28;20257;-75
2023/12/07 05:35:43;;;;;;;34.03;15.60;;;;;3.10;96565.00;;;;8307048;28;21385;-76
2023/12/07 05:39:46;;;;;;;38.60;15.80;;;;;3.10;96572.00;;;;8299127;28;20301;-76
2023/12/07 05:43:51;;;;;;;40.13;16.67;;;;;3.10;96573.00;;;;8307277;28;20291;-75
2023/12/07 05:47:55;;;;;;;36.00;16.37;;;;;3.10;96581.00;;;;8307619;28;20670;-75
2023/12/07 05:51:58;;;;;;;35.97;16.13;;;;;3.00;96584.00;;;;8304487;28;20228;-75
2023/12/07 05:56:03;;;;;;;44.30;16.00;;;;;3.00;96581.00;;;;8308402;28;20212;-75
2023/12/07 06:00:09;;;;;;;37.83;15.60;;;;;3.00;96583.00;;;;8304548;28;20291;-75
2023/12/07 06:04:13;;;;;;;44.93;17.07;;;;;3.00;96583.00;;;;8295689;28;20227;-74
2023/12/07 06:08:17;;;;;;;37.73;16.03;;;;;2.90;96577.00;;;;8293659;28;20248;-75
2023/12/07 06:12:21;;;;;;;39.40;16.90;;;;;2.90;96579.00;;;;8298293;28;20224;-74
2023/12/07 06:16:26;;;;;;;40.43;17.17;;;;;2.80;96584.00;;;;8286866;28;20200;-75
2023/12/07 06:20:31;;;;;;;41.30;16.60;;;;;2.80;96596.00;;;;8295048;28;20214;-75
2023/12/07 06:24:35;;;;;;;45.03;17.33;;;;;2.80;96594.00;;;;8305848;28;20287;-74
2023/12/07 06:28:38;;;;;;;36.23;15.87;;;;;2.70;96587.00;;;;8300323;28;20284;-74
2023/12/07 06:32:42;;;;;;;39.33;15.73;;;;;2.60;96585.00;;;;8303680;28;20237;-74
2023/12/07 06:36:47;;;;;;;47.07;16.77;;;;;2.50;96576.00;;;;8305465;28;20193;-74
2023/12/07 06:40:50;;;;;;;43.60;15.90;;;;;2.40;96585.00;;;;8303622;28;20208;-73
2023/12/07 06:44:56;;;;;;;35.70;16.00;;;;;2.40;96589.00;;;;8305986;28;20208;-74
2023/12/07 06:49:00;;;;;;;38.13;15.20;;;;;2.40;96588.00;;;;8301771;28;20237;-77
2023/12/07 06:53:04;;;;;;;39.37;14.80;;;;;2.40;96592.00;;;;8308862;28;20232;-76
2023/12/07 06:57:08;;;;;;;40.27;15.13;;;;;2.30;96586.00;;;;8302797;28;20697;-77
2023/12/07 07:01:12;;;;;;;37.20;14.57;;;;;2.30;96596.00;;;;8302620;28;20324;-77
2023/12/07 07:05:16;;;;;;;37.63;14.87;;;;;2.20;96594.00;;;;8307981;28;20205;-76
2023/12/07 07:09:20;;;;;;;41.87;17.50;;;;;2.20;96599.00;;;;8304591;28;20212;-76
2023/12/07 07:13:25;;;;;;;39.13;16.43;;;;;2.10;96599.00;;;;8303637;28;20221;-75
2023/12/07 07:17:29;;;;;;;50.13;18.03;;;;;2.10;96606.00;;;;8298897;28;20193;-75
2023/12/07 07:21:35;;;;;;;39.73;16.63;;;;;2.10;96604.00;;;;8303852;28;20203;-76
2023/12/07 07:25:41;;;;;;;42.47;17.40;;;;;2.10;96611.00;;;;8302562;28;20212;-76
2023/12/07 07:29:47;;;;;;;45.17;18.00;;;;;2.20;96615.00;;;;8301733;28;20209;-74
2023/12/07 07:33:51;;;;;;;41.13;16.53;;;;;2.30;96613.00;;;;8300545;28;20258;-76
2023/12/07 07:38:03;;;;;;;41.30;17.17;;;;;2.40;96611.00;;;;8300459;28;20209;-75
2023/12/07 07:42:08;;;;;;;42.37;16.97;;;;;2.50;96619.00;;;;8299941;28;20650;-74
2023/12/07 07:46:11;;;;;;;36.33;17.73;;;;;2.50;96618.00;;;;8300852;28;20574;-74
2023/12/07 07:50:14;;;;;;;34.30;16.40;;;;;2.60;96628.00;;;;8298178;28;20201;-74
2023/12/07 07:54:17;;;;;;;32.43;15.50;;;;;2.60;96622.00;;;;8296941;28;20256;-75
2023/12/07 07:58:22;;;;;;;35.10;15.83;;;;;2.60;96631.00;;;;8299410;28;20208;-80
2023/12/07 08:02:27;;;;;;;38.57;16.63;;;;;2.40;96629.00;;;;8303905;28;20240;-79
2023/12/07 08:06:31;;;;;;;46.30;17.70;;;;;2.30;96629.00;;;;8300770;28;20239;-79
2023/12/07 08:10:40;;;;;;;48.63;18.43;;;;;2.30;96624.00;;;;8307020;28;20223;-78
2023/12/07 08:15:00;;;;;;;49.27;18.83;;;;;2.20;96631.00;;;;8304508;28;20234;-78
2023/12/07 08:19:07;;;;;;;50.57;18.97;;;;;2.20;96629.00;;;;8323091;28;20199;-78
2023/12/07 08:23:11;;;;;;;49.90;18.70;;;;;2.10;96632.00;;;;8333949;28;20216;-80
2023/12/07 08:27:14;;;;;;;49.37;19.17;;;;;2.20;96636.00;;;;8332800;28;20211;-80
2023/12/07 08:31:19;;;;;;;50.63;19.20;;;;;2.20;96636.00;;;;8332854;28;20646;-80
2023/12/07 08:35:23;;;;;;;49.57;19.90;;;;;2.20;96637.00;;;;8332736;28;20221;-79
2023/12/07 08:39:26;;;;;;;54.43;19.40;;;;;2.30;96642.00;;;;8332204;28;20194;-78
2023/12/07 08:43:30;;;;;;;49.50;19.63;;;;;2.30;96637.00;;;;8331791;28;20284;-74
2023/12/07 08:47:35;;;;;;;47.77;19.40;;;;;2.50;96649.00;;;;8332744;28;20197;-74
2023/12/07 08:51:38;;;;;;;59.03;21.23;;;;;2.60;96647.00;;;;8331304;28;20195;-75
2023/12/07 08:55:47;;;;;;;43.60;19.23;;;;;2.60;96656.00;;;;8330764;28;20188;-76
2023/12/07 08:59:50;;;;;;;46.97;18.83;;;;;2.70;96649.00;;;;8331675;28;20567;-74
2023/12/07 09:03:55;;;;;;;51.90;18.80;;;;;2.70;96654.00;;;;8330762;28;20224;-74
2023/12/07 09:08:00;;;;;;;36.90;16.27;;;;;2.80;96654.00;;;;8330850;28;20191;-75
2023/12/07 09:12:03;;;;;;;39.80;17.40;;;;;2.80;96649.00;;;;8331578;28;20224;-74
2023/12/07 09:16:06;;;;;;;38.37;17.50;;;;;2.90;96649.00;;;;8331784;28;20193;-74
2023/12/07 09:20:12;;;;;;;41.53;18.27;;;;;3.00;96643.00;;;;8332593;28;20307;-74
2023/12/07 09:24:17;;;;;;;38.73;17.93;;;;;3.20;96651.00;;;;8330861;28;20183;-75
2023/12/07 09:28:20;;;;;;;35.10;16.60;;;;;3.30;96644.00;;;;8331373;28;20196;-75
2023/12/07 09:32:23;;;;;;;38.27;17.43;;;;;3.40;96635.00;;;;8331688;28;20228;-75
2023/12/07 09:36:42;;;;;;;36.40;16.53;;;;;3.50;96647.00;;;;8331584;28;20666;-76
2023/12/07 09:40:47;;;;;;;33.00;15.73;;;;;3.50;96643.00;;;;8331232;28;20188;-76
2023/12/07 09:44:50;;;;;;;32.93;15.83;;;;;3.50;96642.00;;;;8330431;28;20195;-76
2023/12/07 09:48:53;;;;;;;35.90;15.87;;;;;3.50;96644.00;;;;8330100;28;20228;-76
2023/12/07 09:52:59;;;;;;;37.87;17.33;;;;;3.50;96634.00;;;;8330615;28;20224;-77
2023/12/07 09:57:13;;;;;;;32.47;16.27;;;;;3.60;96637.00;;;;8336853;28;20192;-78
2023/12/07 10:01:16;;;;;;;32.17;15.60;;;;;3.60;96627.00;;;;8337152;28;20596;-77
2023/12/07 10:05:19;;;;;;;33.10;15.90;;;;;3.70;96622.00;;;;8337505;28;20192;-78
2023/12/07 10:09:24;;;;;;;39.53;16.60;;;;;3.60;96613.00;;;;8336424;28;20201;-78
2023/12/07 10:13:36;;;;;;;31.27;14.80;;;;;3.70;96620.00;;;;8337144;28;20589;-78
2023/12/07 10:17:50;;;;;;;30.20;15.10;;;;;3.70;96618.00;;;;8337267;28;20196;-79
2023/12/07 10:21:56;;;;;;;28.03;13.37;;;;;3.70;96620.00;;;;8335228;28;20190;-79
2023/12/07 10:26:01;;;;;;;29.10;14.40;;;;;3.70;96609.00;;;;8336571;28;20197;-79
2023/12/07 10:30:06;;;;;;;28.63;14.87;;;;;3.70;96609.00;;;;8335533;28;20236;-80
2023/12/07 10:34:09;;;;;;;29.43;14.70;;;;;3.80;96605.00;;;;8337151;28;20205;-80
2023/12/07 10:38:13;;;;;;;25.90;14.10;;;;;3.80;96602.00;;;;8336308;28;20208;-82
2023/12/07 10:42:22;;;;;;;26.77;13.23;;;;;3.80;96597.00;;;;8336840;28;20231;-81
2023/12/07 10:46:26;;;;;;;28.10;13.33;;;;;3.70;96596.00;;;;8336504;28;20228;-82
2023/12/07 10:50:32;;;;;;;23.03;11.50;;;;;3.70;96594.00;;;;8334020;28;20208;-83
2023/12/07 10:54:42;;;;;;;22.73;11.43;;;;;3.70;96590.00;;;;8335626;28;20255;-72
2023/12/07 10:58:49;;;;;;;20.53;10.67;;;;;3.80;96586.00;;;;8335363;28;20270;-72
2023/12/07 11:02:53;;;;;;;23.87;10.97;;;;;4.00;96586.00;;;;8336233;28;20685;-71
2023/12/07 11:07:04;;;;;;;17.90;9.43;;;;;4.00;96583.00;;;;8333923;28;20687;-71
2023/12/07 11:11:16;;;;;;;19.60;9.80;;;;;4.10;96581.00;;;;8335065;28;20615;-72
2023/12/07 11:15:20;;;;;;;16.67;9.07;;;;;4.10;96579.00;;;;8335230;28;20212;-72
2023/12/07 11:19:48;;;;;;;18.10;9.00;;;;;4.20;96579.00;;;;8335449;28;20235;-72
2023/12/07 11:23:51;;;;;;;18.10;9.07;;;;;4.30;96581.00;;;;8335802;28;20200;-73
2023/12/07 11:28:01;;;;;;;21.00;10.47;;;;;4.40;96588.00;;;;8334027;28;20200;-73
2023/12/07 11:32:06;;;;;;;18.23;10.63;;;;;4.40;96582.00;;;;8333984;28;20189;-73
2023/12/07 11:36:21;;;;;;;21.97;12.07;;;;;4.60;96582.00;;;;8334141;28;20285;-77
2023/12/07 11:40:25;;;;;;;13.23;8.50;;;;;4.90;96578.00;;;;8334839;28;20630;-73
2023/12/07 11:44:34;;;;;;;11.03;6.23;;;;;5.20;96583.00;;;;8334148;28;20196;-73
2023/12/07 11:48:39;;;;;;;10.30;7.10;;;;;5.50;96576.00;;;;8333080;28;20189;-73
2023/12/07 11:52:46;;;;;;;13.70;8.13;;;;;5.60;96574.00;;;;8333641;28;20202;-74
2023/12/07 11:56:54;;;;;;;17.07;9.43;;;;;5.60;96571.00;;;;8332046;28;20272;-73
2023/12/07 12:00:58;;;;;;;20.00;10.10;;;;;5.70;96558.00;;;;8333938;28;20177;-73
2023/12/07 12:05:05;;;;;;;18.97;10.27;;;;;5.70;96569.00;;;;8332646;28;20263;-74
2023/12/07 12:09:10;;;;;;;14.93;9.07;;;;;5.60;96563.00;;;;8332678;28;20186;-73
2023/12/07 12:13:19;;;;;;;15.90;10.23;;;;;5.50;96559.00;;;;8332162;28;20729;-73
2023/12/07 12:17:24;;;;;;;12.17;8.23;;;;;5.40;96547.00;;;;8332272;28;20271;-73
2023/12/07 12:21:34;;;;;;;14.17;8.30;;;;;5.40;96548.00;;;;8330757;28;20689;-74
2023/12/07 12:25:39;;;;;;;17.77;9.20;;;;;5.40;96552.00;;;;8331698;28;20228;-73
2023/12/07 12:29:43;;;;;;;18.33;9.90;;;;;5.30;96545.00;;;;8333388;28;20236;-74
2023/12/07 12:33:46;;;;;;;14.17;7.80;;;;;5.30;96539.00;;;;8331612;28;20704;-74
2023/12/07 12:37:51;;;;;;;12.67;7.80;;;;;5.30;96536.00;;;;8331850;28;20202;-72
2023/12/07 12:41:55;;;;;;;13.70;7.07;;;;;5.20;96530.00;;;;8332754;28;20205;-72
2023/12/07 12:45:59;;;;;;;13.03;8.17;;;;;5.10;96522.00;;;;8331754;28;20390;-72
2023/12/07 12:50:09;;;;;;;14.03;7.87;;;;;5.10;96522.00;;;;8331220;28;20185;-72
2023/12/07 12:54:14;;;;;;;16.20;8.03;;;;;5.00;96517.00;;;;8332057;28;20228;-73
2023/12/07 12:58:31;;;;;;;14.57;7.83;;;;;4.90;96520.00;;;;8331881;28;20185;-72
2023/12/07 13:02:34;;;;;;;11.67;7.53;;;;;4.90;96524.00;;;;8331993;28;20225;-73
2023/12/07 13:06:41;;;;;;;16.57;7.60;;;;;4.80;96519.00;;;;8331059;28;20232;-72
2023/12/07 13:10:45;;;;;;;22.60;8.13;;;;;4.80;96494.00;;;;8331974;28;20272;-73
2023/12/07 13:14:49;;;;;;;16.93;8.47;;;;;4.70;96500.00;;;;8331688;28;20283;-73
2023/12/07 13:18:53;;;;;;;12.17;8.00;;;;;4.70;96506.00;;;;8331158;28;20197;-73
2023/12/07 13:22:57;;;;;;;11.97;7.40;;;;;4.70;96502.00;;;;8331175;28;20603;-73
2023/12/07 13:27:02;;;;;;;14.10;6.67;;;;;4.60;96506.00;;;;8331443;28;20228;-73
2023/12/07 13:31:05;;;;;;;13.27;6.70;;;;;4.60;96505.00;;;;8334720;28;20203;-74
2023/12/07 13:35:09;;;;;;;12.97;7.60;;;;;4.50;96494.00;;;;8337333;28;20391;-72
2023/12/07 13:39:14;;;;;;;14.07;6.40;;;;;4.40;96498.00;;;;8338380;28;20646;-73
2023/12/07 13:43:33;;;;;;;11.40;6.77;;;;;4.30;96509.00;;;;8337999;28;20189;-73
2023/12/07 13:47:37;;;;;;;12.80;6.80;;;;;4.20;96492.00;;;;8337789;28;20204;-73
2023/12/07 13:51:41;;;;;;;10.50;6.63;;;;;4.10;96479.00;;;;8336675;28;20193;-75
2023/12/07 13:55:46;;;;;;;15.27;7.70;;;;;4.00;96476.00;;;;8337014;28;20225;-74
2023/12/07 13:59:51;;;;;;;13.57;7.50;;;;;4.00;96460.00;;;;8337720;28;20587;-75
2023/12/07 14:03:56;;;;;;;10.20;6.73;;;;;3.90;96461.00;;;;8337524;28;20268;-75
2023/12/07 14:08:02;;;;;;;13.63;7.20;;;;;3.90;96456.00;;;;8336664;28;20196;-75
2023/12/07 14:12:06;;;;;;;12.93;7.70;;;;;3.80;96459.00;;;;8337650;28;20192;-75
2023/12/07 14:16:11;;;;;;;12.23;7.43;;;;;3.70;96456.00;;;;8336843;28;20610;-76
2023/12/07 14:20:27;;;;;;;23.73;13.27;;;;;3.60;96464.00;;;;8337558;28;20184;-76
2023/12/07 14:24:52;;;;;;;28.17;13.77;;;;;3.50;96459.00;;;;8335504;28;20200;-77
2023/12/07 14:28:55;;;;;;;34.60;16.00;;;;;3.50;96454.00;;;;8336604;28;20208;-77
2023/12/07 14:33:00;;;;;;;34.70;16.13;;;;;3.40;96449.00;;;;8335422;28;20280;-76
2023/12/07 14:37:05;;;;;;;39.53;17.87;;;;;3.40;96455.00;;;;8336164;28;20215;-76
2023/12/07 14:41:12;;;;;;;41.83;18.73;;;;;3.30;96463.00;;;;8334977;28;20191;-76
2023/12/07 14:45:15;;;;;;;45.33;20.33;;;;;3.30;96444.00;;;;8336268;28;20189;-73
2023/12/07 14:49:21;;;;;;;49.03;21.23;;;;;3.20;96452.00;;;;8335263;28;20238;-73
2023/12/07 14:53:24;;;;;;;44.17;21.00;;;;;3.10;96456.00;;;;8335505;28;20193;-73
2023/12/07 14:57:28;;;;;;;45.63;21.57;;;;;3.00;96455.00;;;;8335466;28;20219;-73
2023/12/07 15:01:31;;;;;;;52.03;23.53;;;;;2.90;96459.00;;;;8336268;28;20239;-73
2023/12/07 15:05:35;;;;;;;50.07;22.63;;;;;2.90;96458.00;;;;8335289;28;20224;-73
2023/12/07 15:09:40;;;;;;;57.03;25.87;;;;;2.80;96467.00;;;;8334831;28;20210;-71
2023/12/07 15:13:43;;;;;;;49.97;22.53;;;;;2.80;96474.00;;;;8334891;28;20197;-75
2023/12/07 15:17:47;;;;;;;71.10;29.00;;;;;2.70;96455.00;;;;8334015;28;20228;-72
2023/12/07 15:21:52;;;;;;;58.27;24.57;;;;;2.60;96463.00;;;;8335153;28;20587;-72
2023/12/07 15:25:55;;;;;;;149.80;69.63;;;;;2.60;96458.00;;;;8332366;28;20303;-73
2023/12/07 15:29:58;;;;;;;60.67;29.03;;;;;2.50;96453.00;;;;8334434;28;20198;-72
2023/12/07 15:34:04;;;;;;;61.03;28.30;;;;;2.50;96464.00;;;;8335251;28;20712;-72
2023/12/07 15:38:10;;;;;;;47.77;21.97;;;;;2.40;96480.00;;;;8334511;28;20633;-73
2023/12/07 15:42:13;;;;;;;51.27;22.53;;;;;2.40;96478.00;;;;8333632;28;20269;-72
2023/12/07 15:46:16;;;;;;;54.13;23.60;;;;;2.40;96475.00;;;;8330030;28;20196;-72
2023/12/07 15:50:19;;;;;;;51.80;23.13;;;;;2.40;96474.00;;;;8330896;28;20567;-73
2023/12/07 15:54:25;;;;;;;50.43;21.90;;;;;2.30;96474.00;;;;8332504;28;20316;-72
2023/12/07 15:58:41;;;;;;;50.67;22.00;;;;;2.30;96472.00;;;;8333314;28;20183;-73
2023/12/07 16:02:55;;;;;;;49.03;21.70;;;;;2.30;96468.00;;;;8326767;28;20220;-73
2023/12/07 16:06:59;;;;;;;50.13;21.50;;;;;2.30;96468.00;;;;8331631;28;20220;-73
2023/12/07 16:11:08;;;;;;;55.50;21.93;;;;;2.20;96466.00;;;;8332687;28;20195;-73
2023/12/07 16:15:12;;;;;;;58.23;24.83;;;;;2.30;96480.00;;;;8332242;28;20209;-73
2023/12/07 16:19:15;;;;;;;62.80;25.67;;;;;2.30;96465.00;;;;8329380;28;20204;-74
2023/12/07 16:23:19;;;;;;;101.57;40.10;;;;;2.30;96461.00;;;;8330146;28;20600;-72
2023/12/07 16:27:23;;;;;;;157.67;52.53;;;;;2.30;96452.00;;;;8331329;28;20197;-75
2023/12/07 16:31:28;;;;;;;74.53;31.47;;;;;2.30;96453.00;;;;8331962;28;20246;-74
2023/12/07 16:35:43;;;;;;;103.10;58.80;;;;;2.30;96454.00;;;;8331800;28;20221;-74
2023/12/07 16:39:48;;;;;;;62.43;29.00;;;;;2.30;96445.00;;;;8332789;28;20183;-75
2023/12/07 16:43:52;;;;;;;57.40;23.43;;;;;2.30;96460.00;;;;8332632;28;20668;-75
2023/12/07 16:47:56;;;;;;;56.33;24.57;;;;;2.20;96446.00;;;;8332351;28;20232;-75
2023/12/07 16:52:01;;;;;;;64.63;28.80;;;;;2.10;96441.00;;;;8332916;28;20196;-76
2023/12/07 16:56:07;;;;;;;59.40;25.60;;;;;2.00;96436.00;;;;8331442;28;20232;-76
2023/12/07 17:00:14;;;;;;;60.80;23.90;;;;;2.00;96434.00;;;;8332696;28;20523;-79
2023/12/07 17:04:18;;;;;;;58.93;24.97;;;;;2.00;96436.00;;;;8332374;28;20251;-80
2023/12/07 17:08:22;;;;;;;66.47;26.33;;;;;1.90;96426.00;;;;8332718;28;20204;-80
2023/12/07 17:12:25;;;;;;;73.80;27.20;;;;;1.90;96435.00;;;;8331311;28;20208;-79
2023/12/07 17:16:30;;;;;;;72.70;27.93;;;;;1.80;96437.00;;;;8331600;28;20223;-81
2023/12/07 17:20:33;;;;;;;63.77;26.93;;;;;1.80;96437.00;;;;8332105;28;20587;-81
2023/12/07 17:24:36;;;;;;;64.20;26.37;;;;;1.80;96439.00;;;;8332158;28;20562;-82
2023/12/07 17:28:42;;;;;;;72.13;28.23;;;;;1.70;96423.00;;;;8331581;28;20199;-82
2023/12/07 17:32:48;;;;;;;69.93;28.40;;;;;1.70;96412.00;;;;8331889;28;20614;-82
2023/12/07 17:36:52;;;;;;;68.60;27.30;;;;;1.60;96410.00;;;;8331945;28;20227;-82
2023/12/07 17:40:55;;;;;;;72.33;27.93;;;;;1.60;96415.00;;;;8332277;28;20208;-82
2023/12/07 17:44:58;;;;;;;76.10;26.30;;;;;1.50;96407.00;;;;8331605;28;20236;-82
2023/12/07 17:49:03;;;;;;;69.83;26.60;;;;;1.40;96401.00;;;;8331133;28;20295;-84
2023/12/07 17:53:06;;;;;;;74.43;27.13;;;;;1.40;96404.00;;;;8331748;28;20267;-85
2023/12/07 17:57:10;;;;;;;75.67;26.63;;;;;1.40;96399.00;;;;8332099;28;20223;-86
2023/12/07 18:01:20;;;;;;;61.40;23.93;;;;;1.30;96388.00;;;;8331624;28;20199;-86
2023/12/07 18:05:24;;;;;;;61.90;24.97;;;;;1.30;96376.00;;;;8331488;28;20217;-86
2023/12/07 18:09:28;;;;;;;64.47;23.90;;;;;1.20;96371.00;;;;8330530;28;20192;-88
2023/12/07 18:13:31;;;;;;;69.93;25.80;;;;;1.20;96369.00;;;;8331994;28;20280;-88
2023/12/07 18:17:34;;;;;;;75.93;27.73;;;;;1.10;96360.00;;;;8337400;28;20226;-88
2023/12/07 18:21:41;;;;;;;69.17;25.10;;;;;1.10;96352.00;;;;8337705;28;20562;-88
2023/12/07 18:25:45;;;;;;;75.17;27.03;;;;;1.20;96344.00;;;;8337810;28;20181;-89
2023/12/07 18:29:50;;;;;;;67.87;23.73;;;;;1.20;96349.00;;;;8337293;28;20643;-89
2023/12/07 18:33:53;;;;;;;83.40;28.13;;;;;1.30;96347.00;;;;8339298;28;20188;-87
2023/12/07 18:38:00;;;;;;;91.33;29.90;;;;;1.40;96335.00;;;;8339591;28;20218;-87
2023/12/07 18:42:04;;;;;;;85.17;27.40;;;;;1.50;96337.00;;;;8336860;28;20695;-85
2023/12/07 18:46:08;;;;;;;77.43;27.37;;;;;1.50;96326.00;;;;8338725;28;20212;-83
2023/12/07 18:50:11;;;;;;;94.23;30.70;;;;;1.50;96314.00;;;;8337056;28;20239;-80
2023/12/07 18:54:16;;;;;;;105.60;30.70;;;;;1.50;96314.00;;;;8333477;28;20189;-81
2023/12/07 18:58:22;;;;;;;117.10;29.83;;;;;1.50;96321.00;;;;8331665;28;20224;-80
2023/12/07 19:02:25;;;;;;;97.40;29.80;;;;;1.40;96318.00;;;;8332549;28;20227;-82
2023/12/07 19:06:29;;;;;;;105.93;29.43;;;;;1.40;96317.00;;;;8336849;28;20255;-83
2023/12/07 19:10:34;;;;;;;85.53;26.50;;;;;1.50;96308.00;;;;8335338;28;20234;-81
2023/12/07 19:14:37;;;;;;;94.10;27.03;;;;;1.40;96302.00;;;;8335433;28;20208;-80
2023/12/07 19:18:40;;;;;;;77.97;24.23;;;;;1.50;96281.00;;;;8330924;28;20230;-77
2023/12/07 19:22:44;;;;;;;104.37;27.73;;;;;1.50;96286.00;;;;8334385;28;20625;-77
2023/12/07 19:26:49;;;;;;;106.30;27.53;;;;;1.50;96280.00;;;;8334927;28;20639;-77
2023/12/07 19:30:53;;;;;;;102.30;27.90;;;;;1.60;96275.00;;;;8334002;28;20200;-79
2023/12/07 19:34:57;;;;;;;90.73;25.60;;;;;1.60;96272.00;;;;8333946;28;20205;-79
2023/12/07 19:39:00;;;;;;;93.23;27.20;;;;;1.60;96282.00;;;;8334219;28;20531;-78
2023/12/07 19:43:05;;;;;;;78.73;23.87;;;;;1.60;96272.00;;;;8335119;28;20651;-78
2023/12/07 19:47:08;;;;;;;90.30;26.97;;;;;1.60;96291.00;;;;8333707;28;20204;-78
2023/12/07 19:51:11;;;;;;;105.20;26.43;;;;;1.60;96297.00;;;;8332739;28;20241;-78
2023/12/07 19:55:14;;;;;;;107.00;25.20;;;;;1.50;96298.00;;;;8333785;28;20275;-78
2023/12/07 19:59:19;;;;;;;120.73;25.57;;;;;1.50;96296.00;;;;8334278;28;20842;-78
2023/12/07 20:03:22;;;;;;;101.87;24.37;;;;;1.50;96282.00;;;;8334058;28;20571;-79
2023/12/07 20:07:25;;;;;;;106.73;22.30;;;;;1.50;96279.00;;;;8333781;28;20221;-78
2023/12/07 20:11:29;;;;;;;132.07;23.20;;;;;1.40;96260.00;;;;8333586;28;20197;-76
2023/12/07 20:15:34;;;;;;;111.07;25.20;;;;;1.40;96250.00;;;;8333429;28;20231;-76